• Join FlightAware (Why Join?)
  • Login
  • US Flag 
04:12PM EST


 

Airport Tracker/Info


-or-


 

Live Flight TrackerFlight Track Log ✈ UAL5900 ✈ 23-Apr-2013 ✈ KORD - KBNA

Flight Track Log - Related Links

Times and Time Zones

All times are in EDT time to prevent confusion due to time zone crossing. See the UAL5900 flight status page for this flight to view local times or setup timezone preferences in your user account.

Time Position Orientation Groundspeed Altitude Reporting Facility
EDT Latitude Longitude Course Direction KTS MPH feet Rate Location/Type
06:00PM 41.9000 -87.9667 186° South 220 253 3,900  Level Chicago TRACON
06:01PM 41.8333 -87.9833 191° South 260 299 5,700 1,800 Climbing Chicago TRACON
06:02PM 41.8203 -87.9831 179° South 253 291 6,400 2,580 Climbing Chicago Center
06:03PM 41.7394 -87.9625 169° South 249 287 9,300 2,220 Climbing Chicago Center
06:04PM 41.6669 -87.9433 169° South 262 302 11,000 1,200 Climbing Chicago Center
06:05PM 41.5828 -87.9217 169° South 305 351 11,900 1,020 Climbing Chicago Center
06:06PM 41.3906 -87.7728 186° South  Level Estimated
06:06PM 41.4917 -87.8986 169° South 326 375 13,200  Level Chicago Center
06:07PM 41.3975 -87.8792 171° South 336 387 14,400 1,080 Climbing Chicago Center
06:08PM 41.3042 -87.8889 184° South 332 382 15,500 1,020 Climbing Chicago Center
06:09PM 41.2064 -87.8922 181° South 346 398 16,600 1,200 Climbing Chicago Center
06:10PM 41.0875 -87.8875 178° South 354 407 18,000 1,140 Climbing Chicago Center
06:11PM 40.9869 -87.8850 179° South 359 413 19,000 960 Climbing Chicago Center
06:12PM 40.8836 -87.8808 178° South 370 426 20,100 1,200 Climbing Chicago Center
06:13PM 40.7789 -87.8769 178° South 376 433 21,600 1,680 Climbing Chicago Center
06:14PM 40.6786 -87.8747 179° South 364 419 23,600 1,680 Climbing Chicago Center
06:15PM 40.5825 -87.8719 179° South 350 403 25,100 1,140 Climbing Chicago Center
06:16PM 40.4636 -87.8675 178° South 356 410 26,000 420 Climbing Chicago Center
06:17PM 40.3544 -87.8642 179° South 386 444 26,000  Level Chicago Center
06:18PM 40.2875 -87.8642 180° South 393 452 26,000  Level Indianapolis Center
06:19PM 40.1694 -87.8589 178° South 414 476 26,000 360 Level Indianapolis Center
06:21PM 39.9278 -87.8486 178° South 432 497 27,200 960 Climbing Indianapolis Center
06:22PM 39.7992 -87.8422 178° South 400 460 29,000 840 Climbing Indianapolis Center
06:23PM 39.6892 -87.8256 173° South 401 461 29,000 240 Level Indianapolis Center
06:24PM 39.5706 -87.7958 169° South 426 490 29,500 960 Climbing Indianapolis Center
06:25PM 39.4564 -87.7672 169° South 420 483 31,000 720 Climbing Indianapolis Center
06:26PM 39.3467 -87.7400 169° South 416 479 31,000  Level Indianapolis Center
06:27PM 39.2286 -87.7103 169° South 427 491 31,000  Level Indianapolis Center
06:28PM 39.0847 -87.6744 169° South 435 501 31,000  Level Indianapolis Center
06:29PM 38.9628 -87.6439 169° South 444 511 31,000  Level Indianapolis Center
06:30PM 38.8414 -87.6144 169° South 444 511 31,000  Level Indianapolis Center
06:31PM 38.7200 -87.5825 168° South 445 512 31,000  Level Indianapolis Center
06:32PM 38.5967 -87.5539 170° South 448 516 31,000  Level Indianapolis Center
06:33PM 38.4750 -87.5236 169° South 446 513 31,000  Level Indianapolis Center
06:34PM 38.3297 -87.4886 169° South 446 513 31,000  Level Indianapolis Center
06:35PM 38.2086 -87.4603 170° South 446 513 31,000 -360 Level Indianapolis Center
06:36PM 38.0867 -87.4303 169° South 448 516 30,300 -780 Descending Indianapolis Center
06:38PM 37.9636 -87.4003 169° South 452 520 29,400 -900 Descending Indianapolis Center
06:39PM 37.8417 -87.3706 169° South 447 514 28,500 -1,260 Descending Indianapolis Center
06:40PM 37.7033 -87.3375 169° South 452 520 26,800 -1,560 Descending Indianapolis Center
06:41PM 37.5778 -87.3075 169° South 455 524 25,300 -1,680 Descending Indianapolis Center
06:42PM 37.4533 -87.2819 171° South 451 519 23,400 -1,260 Descending Indianapolis Center
06:42PM 37.3556 -87.2572 169° South 448 516 23,000 -240 Descending Memphis Center
06:43PM 37.2256 -87.2181 167° South 443 510 23,000 -900 Level Memphis Center
06:44PM 37.1036 -87.1811 166° South 443 510 21,300 -1,920 Descending Memphis Center
06:45PM 37.0325 -87.1633 169° South 441 507 20,000 -2,040 Descending Memphis Center
06:45PM 36.9861 -87.1494 167° South 443 510 19,300 -1,800 Descending Memphis Center
06:46PM 36.8728 -87.1150 166° South 428 493 17,500 -1,800 Descending Memphis Center
06:47PM 36.7631 -87.0678 161° South 419 482 15,700 -2,160 Descending Memphis Center
06:48PM 36.6656 -87.0072 154° Southeast 414 476 13,200 -2,160 Descending Memphis Center
06:49PM 36.5725 -86.9489 153° Southeast 385 443 11,400 -1,560 Descending Memphis Center
06:50PM 36.4917 -86.8981 153° Southeast 338 389 10,100 -1,500 Descending Memphis Center
06:51PM 36.4300 -86.8517 149° Southeast 309 356 8,500 -1,920 Descending Memphis Center
06:52PM 36.3681 -86.7978 145° Southeast 285 328 6,300 -2,220 Descending Memphis Center
06:53PM 36.3406 -86.7139 112° Southeast 262 302 4,100 -1,620 Descending Memphis Center
06:54PM 36.2908 -86.6544 136° Southeast 242 278 3,100 -900 Descending Memphis Center
06:55PM 36.2342 -86.6442 172° South 201 231 2,400 -600 Descending Memphis Center
06:56PM 36.2011 -86.6533 193° South 163 188 2,000 -600 Descending Memphis Center
06:57PM 36.1683 -86.6678 200° South 131 151 1,300 -600 Descending Memphis Center
06:58PM 36.1436 -86.6764 196° South 122 140 800 3,840 Descending Memphis Center
06:59PM 36.1086 -86.6933 201° Southwest 122 140 9,000 8,160 Climbing Memphis Center
07:01PM 36.1167 -86.6667 90° East  Level FlightAware Approximate
07:08PM 36.1245 -86.6782 90° East  Level Estimated
07:09PM 36.1245 -86.6782 90° East  Level Estimated
07:10PM 36.1245 -86.6782 90° East  Level Estimated
07:11PM 36.1245 -86.6782 90° East  Level Estimated
07:12PM 36.1245 -86.6782 90° East  Level Estimated
07:13PM 36.1245 -86.6782 90° East  Level Estimated